Time;durP1;ratioP1;P1;durP2;ratioP2;P2;SDS_P1;SDS_P2;PMS_P1;PMS_P2;Temp;Humidity;BMP_temperature;BMP_pressure;BME280_temperature;BME280_humidity;BME280_pressure;Samples;Min_cycle;Max_cycle;Signal;HPM_P1;HPM_P2
2023/06/04 03:16:45;;;;;;;8.85;3.70;;;15.60;88.70;;;;;;6158354;22;89945;-77
2023/06/04 03:19:11;;;;;;;7.32;3.40;;;15.70;89.40;;;;;;6250239;22;87879;-75
2023/06/04 03:21:39;;;;;;;5.78;3.25;;;15.70;89.30;;;;;;6250316;22;88201;-75
2023/06/04 03:24:07;;;;;;;5.70;3.10;;;15.60;88.90;;;;;;6250956;22;87468;-75
2023/06/04 03:26:32;;;;;;;7.72;3.17;;;15.70;88.30;;;;;;6249997;22;87437;-74
2023/06/04 03:28:58;;;;;;;7.57;3.60;;;15.70;88.40;;;;;;6248492;22;88261;-74
2023/06/04 03:31:24;;;;;;;6.45;3.05;;;15.70;88.10;;;;;;6249975;22;89617;-73
2023/06/04 03:33:49;;;;;;;7.15;3.28;;;15.70;87.20;;;;;;6249695;22;87208;-73
2023/06/04 03:36:16;;;;;;;5.78;3.13;;;15.80;87.00;;;;;;6250245;22;87012;-73
2023/06/04 03:38:44;;;;;;;7.03;3.42;;;15.80;87.10;;;;;;6249531;22;88694;-73
2023/06/04 03:41:10;;;;;;;6.00;3.28;;;15.70;87.00;;;;;;6249906;22;87999;-73
2023/06/04 03:43:36;;;;;;;5.57;2.95;;;15.70;87.10;;;;;;6250227;22;87583;-73
2023/06/04 03:46:01;;;;;;;9.55;3.55;;;15.70;87.20;;;;;;6251116;22;86244;-74
2023/06/04 03:48:27;;;;;;;10.57;3.15;;;15.80;86.80;;;;;;6249506;22;87612;-74
2023/06/04 03:50:53;;;;;;;5.88;2.90;;;15.90;86.20;;;;;;6250120;22;88029;-74
2023/06/04 03:53:18;;;;;;;8.27;3.10;;;16.00;86.20;;;;;;6249447;22;88552;-74
2023/06/04 03:55:44;;;;;;;8.48;3.28;;;16.00;86.10;;;;;;6250240;22;87332;-73
2023/06/04 03:58:11;;;;;;;8.77;3.08;;;16.10;85.60;;;;;;6250158;22;87533;-74
2023/06/04 04:00:36;;;;;;;5.13;2.42;;;16.30;85.90;;;;;;6249975;22;88374;-75
2023/06/04 04:03:02;;;;;;;6.40;2.42;;;16.40;84.80;;;;;;6249290;22;87408;-75
2023/06/04 04:05:28;;;;;;;7.32;3.55;;;16.80;83.00;;;;;;6250060;22;87378;-75
2023/06/04 04:07:54;;;;;;;6.63;3.30;;;17.20;81.40;;;;;;6250186;22;88177;-85
2023/06/04 04:10:19;;;;;;;6.78;3.15;;;17.50;80.70;;;;;;6250153;22;87991;-79
2023/06/04 04:12:45;;;;;;;6.72;3.40;;;17.70;79.10;;;;;;6222648;22;87599;-75
2023/06/04 04:15:11;;;;;;;7.15;3.50;;;17.70;78.60;;;;;;6250230;22;87117;-75
2023/06/04 04:17:36;;;;;;;7.65;3.42;;;17.70;78.40;;;;;;6228776;22;88270;-75
2023/06/04 04:20:05;;;;;;;8.27;2.90;;;17.80;78.10;;;;;;6218662;22;88201;-75
2023/06/04 04:22:31;;;;;;;8.25;2.65;;;17.90;77.80;;;;;;6219513;22;87351;-76
2023/06/04 04:24:57;;;;;;;5.47;3.28;;;18.00;77.10;;;;;;6219344;22;87031;-73
2023/06/04 04:27:23;;;;;;;5.93;3.20;;;18.10;76.60;;;;;;6219186;22;88112;-72
2023/06/04 04:29:48;;;;;;;7.65;3.10;;;18.10;76.00;;;;;;6218720;22;88367;-73
2023/06/04 04:32:16;;;;;;;5.97;2.88;;;18.10;75.40;;;;;;6219577;22;87380;-73
2023/06/04 04:34:51;;;;;;;6.10;2.85;;;18.20;76.70;;;;;;6219698;22;86679;-75
2023/06/04 04:37:20;;;;;;;5.15;2.67;;;18.40;76.70;;;;;;6219033;22;88426;-74
2023/06/04 04:39:46;;;;;;;6.03;3.33;;;18.40;75.80;;;;;;6218919;22;87282;-75
2023/06/04 04:42:12;;;;;;;5.43;3.05;;;18.60;76.90;;;;;;6218866;22;88281;-73
2023/06/04 04:44:38;;;;;;;6.30;2.92;;;18.80;74.40;;;;;;6218857;22;87317;-75
2023/06/04 04:47:03;;;;;;;7.28;3.33;;;19.10;74.30;;;;;;6219144;22;87804;-75
2023/06/04 04:49:29;;;;;;;7.07;2.83;;;19.50;73.20;;;;;;6218315;22;87462;-77
2023/06/04 04:51:55;;;;;;;5.93;3.17;;;20.10;69.90;;;;;;6219491;22;87466;-74
2023/06/04 04:54:20;;;;;;;7.63;2.65;;;20.90;66.40;;;;;;6218846;22;87321;-73
2023/06/04 04:56:46;;;;;;;12.32;3.00;;;21.30;63.50;;;;;;6218946;22;88031;-73
2023/06/04 04:59:12;;;;;;;5.43;3.13;;;21.90;63.20;;;;;;6218791;22;87903;-73
2023/06/04 05:01:37;;;;;;;6.53;3.13;;;22.20;61.10;;;;;;6219151;22;87228;-74
2023/06/04 05:04:03;;;;;;;6.28;3.63;;;22.40;61.00;;;;;;6218819;22;87053;-74
2023/06/04 05:06:28;;;;;;;6.75;3.25;;;22.60;60.60;;;;;;6218536;22;88931;-74
2023/06/04 05:08:54;;;;;;;6.18;3.40;;;23.10;58.90;;;;;;6218463;22;88616;-73
2023/06/04 05:11:21;;;;;;;10.90;3.10;;;22.80;59.30;;;;;;6219330;22;86990;-77
2023/06/04 05:13:46;;;;;;;5.30;3.33;;;23.20;59.40;;;;;;6219293;22;87348;-77
2023/06/04 05:16:12;;;;;;;8.75;3.30;;;23.80;56.90;;;;;;6218345;22;88094;-78
2023/06/04 05:18:41;;;;;;;6.70;3.78;;;24.20;55.80;;;;;;6218015;22;87925;-75
2023/06/04 05:21:07;;;;;;;6.47;3.33;;;24.90;55.40;;;;;;6218710;22;87189;-76
2023/06/04 05:23:36;;;;;;;8.48;3.83;;;25.70;53.30;;;;;;6219139;22;86460;-78
2023/06/04 05:26:03;;;;;;;5.20;3.72;;;26.30;51.60;;;;;;6218514;22;88128;-76
2023/06/04 05:28:28;;;;;;;6.07;3.80;;;26.50;51.60;;;;;;6218642;22;87718;-77
2023/06/04 05:30:58;;;;;;;5.38;3.55;;;27.10;49.50;;;;;;6218113;22;88311;-76
2023/06/04 05:33:28;;;;;;;7.15;3.70;;;27.10;51.20;;;;;;6218857;22;89026;-76
2023/06/04 05:35:54;;;;;;;5.93;3.75;;;28.10;49.40;;;;;;6218159;22;88008;-75
2023/06/04 05:38:20;;;;;;;7.82;3.67;;;27.90;49.00;;;;;;6218587;22;87597;-75
2023/06/04 05:40:46;;;;;;;8.48;3.75;;;27.00;49.70;;;;;;6218407;22;87454;-76
2023/06/04 05:43:12;;;;;;;6.00;3.80;;;26.10;51.10;;;;;;6219256;22;86976;-76
2023/06/04 05:45:38;;;;;;;4.03;3.05;;;25.30;52.30;;;;;;6218090;22;87749;-74
2023/06/04 05:48:04;;;;;;;6.20;3.20;;;24.60;55.00;;;;;;6218565;22;87816;-74
2023/06/04 05:50:30;;;;;;;7.63;3.45;;;24.10;55.10;;;;;;6191552;22;87568;-74
2023/06/04 05:52:56;;;;;;;4.25;3.03;;;23.90;54.90;;;;;;6219088;22;87381;-75
2023/06/04 05:55:22;;;;;;;7.05;3.50;;;23.90;55.30;;;;;;6217604;22;88274;-75
2023/06/04 05:57:51;;;;;;;4.88;3.40;;;23.80;55.40;;;;;;6218118;22;87981;-74
2023/06/04 06:00:17;;;;;;;5.50;2.88;;;23.50;55.60;;;;;;6218387;22;87292;-76
2023/06/04 06:02:45;;;;;;;5.97;2.85;;;23.40;55.60;;;;;;6218873;22;87330;-78
2023/06/04 06:05:11;;;;;;;7.70;3.35;;;23.60;55.90;;;;;;6218112;22;87538;-79
2023/06/04 06:07:36;;;;;;;8.13;3.40;;;23.60;55.40;;;;;;6217947;22;87242;-77
2023/06/04 06:10:03;;;;;;;6.22;3.40;;;23.80;56.70;;;;;;6218259;22;87025;-73
2023/06/04 06:12:29;;;;;;;5.68;3.60;;;24.60;56.00;;;;;;6219189;22;86458;-75
2023/06/04 06:14:54;;;;;;;5.38;3.20;;;25.50;54.10;;;;;;6218073;22;87620;-75
2023/06/04 06:17:20;;;;;;;6.97;3.70;;;27.10;52.00;;;;;;6218042;22;87957;-76
2023/06/04 06:19:45;;;;;;;7.03;4.30;;;28.30;51.30;;;;;;6217700;22;88280;-75
2023/06/04 06:22:11;;;;;;;6.10;3.88;;;29.70;48.40;;;;;;6218673;22;87252;-79
2023/06/04 06:24:37;;;;;;;9.02;4.43;;;31.20;45.70;;;;;;6217689;22;87919;-75
2023/06/04 06:27:03;;;;;;;6.47;4.78;;;31.70;44.00;;;;;;6190690;22;88241;-75
2023/06/04 06:29:28;;;;;;;5.88;3.88;;;32.20;42.40;;;;;;6218190;22;87357;-75
2023/06/04 06:31:55;;;;;;;5.90;4.35;;;31.50;41.90;;;;;;6218773;22;87511;-76
2023/06/04 06:34:21;;;;;;;5.40;4.40;;;30.60;43.80;;;;;;6205684;22;87941;-74
2023/06/04 06:36:48;;;;;;;6.07;3.72;;;31.00;45.00;;;;;;6203371;22;87672;-74
2023/06/04 06:39:13;;;;;;;5.18;4.05;;;31.90;42.50;;;;;;6215322;22;87293;-75
2023/06/04 06:41:39;;;;;;;6.10;3.90;;;31.50;41.20;;;;;;6217039;22;87266;-74
2023/06/04 06:44:05;;;;;;;5.97;3.88;;;31.10;42.00;;;;;;6218080;22;88354;-73
2023/06/04 06:46:31;;;;;;;5.82;3.63;;;31.00;43.10;;;;;;6213430;22;87266;-73
2023/06/04 06:48:57;;;;;;;7.95;4.53;;;31.90;43.60;;;;;;6212037;22;87030;-74
2023/06/04 06:51:23;;;;;;;6.28;4.63;;;33.00;41.70;;;;;;6219433;22;87333;-74
2023/06/04 06:53:51;;;;;;;7.82;4.90;;;33.00;42.40;;;;;;6209770;22;87986;-74
2023/06/04 06:56:18;;;;;;;6.78;5.05;;;33.20;41.80;;;;;;6211013;22;87769;-76
2023/06/04 06:58:44;;;;;;;7.45;4.95;;;33.30;41.80;;;;;;6202860;22;87503;-74
2023/06/04 07:01:10;;;;;;;6.35;4.22;;;33.00;43.30;;;;;;6217374;22;86663;-72
2023/06/04 07:03:38;;;;;;;12.13;4.65;;;32.30;43.30;;;;;;6215491;22;88638;-72
2023/06/04 07:06:03;;;;;;;5.15;3.92;;;31.40;44.40;;;;;;6200907;22;87699;-73
2023/06/04 07:08:29;;;;;;;11.95;4.72;;;30.70;44.90;;;;;;6199037;22;89265;-72
2023/06/04 07:10:55;;;;;;;8.82;5.20;;;30.00;46.00;;;;;;6199929;22;87276;-74
2023/06/04 07:13:20;;;;;;;7.07;4.57;;;29.30;46.80;;;;;;6197955;22;87452;-73
2023/06/04 07:15:46;;;;;;;5.80;4.25;;;28.40;47.90;;;;;;6208957;22;87861;-74
2023/06/04 07:18:12;;;;;;;4.95;3.28;;;28.10;49.20;;;;;;6203974;22;89407;-76
2023/06/04 07:20:37;;;;;;;7.03;4.30;;;27.80;50.40;;;;;;6215236;22;87228;-77
2023/06/04 07:23:03;;;;;;;8.55;3.92;;;28.50;49.80;;;;;;6215324;22;87425;-74
2023/06/04 07:25:29;;;;;;;7.47;5.35;;;29.70;48.90;;;;;;6210172;22;88066;-75
2023/06/04 07:27:57;;;;;;;7.22;4.63;;;31.00;47.10;;;;;;6210823;22;87363;-76
2023/06/04 07:30:26;;;;;;;7.55;5.80;;;31.30;46.10;;;;;;6216590;22;87328;-75
2023/06/04 07:32:52;;;;;;;8.38;6.10;;;30.90;45.60;;;;;;6215098;22;88516;-75
2023/06/04 07:35:18;;;;;;;11.82;5.47;;;30.40;46.40;;;;;;6216871;22;89434;-75
2023/06/04 07:37:45;;;;;;;12.73;5.25;;;30.70;46.40;;;;;;6216565;22;87392;-74
2023/06/04 07:40:11;;;;;;;11.30;4.43;;;30.90;46.80;;;;;;6214075;22;87448;-73
2023/06/04 07:42:37;;;;;;;8.32;4.95;;;30.50;47.00;;;;;;6212929;22;88080;-77
2023/06/04 07:45:04;;;;;;;9.20;4.88;;;30.00;47.50;;;;;;6202553;22;87817;-74
2023/06/04 07:47:29;;;;;;;12.77;5.55;;;30.30;47.40;;;;;;6215281;22;87415;-75
2023/06/04 07:49:55;;;;;;;7.57;5.00;;;30.50;46.60;;;;;;6214232;22;87405;-76
2023/06/04 07:52:20;;;;;;;7.43;5.70;;;31.80;46.20;;;;;;6215768;22;87793;-73
2023/06/04 07:54:46;;;;;;;6.85;5.38;;;33.20;43.90;;;;;;6206791;22;88154;-73
2023/06/04 07:57:12;;;;;;;9.65;6.50;;;33.70;43.00;;;;;;6209472;22;88286;-74
2023/06/04 07:59:38;;;;;;;8.65;6.15;;;34.50;42.10;;;;;;6212220;22;87750;-75
2023/06/04 08:02:04;;;;;;;9.45;6.22;;;35.90;40.70;;;;;;6210732;22;88023;-73
2023/06/04 08:04:31;;;;;;;8.50;6.35;;;37.40;39.80;;;;;;6198174;22;87594;-72
2023/06/04 08:06:57;;;;;;;14.18;6.95;;;38.50;38.40;;;;;;6211362;22;87329;-75
2023/06/04 08:09:22;;;;;;;8.52;7.25;;;38.80;38.40;;;;;;6213712;22;87420;-73
2023/06/04 08:11:49;;;;;;;12.13;8.43;;;39.40;36.90;;;;;;6213637;22;88820;-75
2023/06/04 08:14:15;;;;;;;9.60;8.60;;;39.70;36.90;;;;;;6215088;22;87395;-74
2023/06/04 08:16:40;;;;;;;8.57;6.05;;;40.20;36.50;;;;;;6209777;22;87659;-75
2023/06/04 08:19:07;;;;;;;9.48;8.05;;;40.00;35.90;;;;;;6208742;22;87249;-75
2023/06/04 08:21:34;;;;;;;9.70;7.90;;;39.90;37.20;;;;;;6212989;22;89181;-74
2023/06/04 08:24:00;;;;;;;9.70;7.63;;;39.70;36.10;;;;;;6211162;22;89303;-74
2023/06/04 08:26:29;;;;;;;13.93;8.00;;;39.10;36.60;;;;;;6203420;22;87845;-73
2023/06/04 08:28:55;;;;;;;10.02;8.90;;;39.40;36.70;;;;;;6203057;22;87586;-74
2023/06/04 08:31:21;;;;;;;9.05;7.97;;;40.00;36.70;;;;;;6212650;22;87313;-73
2023/06/04 08:33:47;;;;;;;9.10;8.07;;;40.20;36.50;;;;;;6212125;22;87672;-74
2023/06/04 08:36:14;;;;;;;8.75;7.85;;;39.90;37.00;;;;;;6215146;22;87304;-75
2023/06/04 08:38:39;;;;;;;8.38;6.32;;;39.50;36.40;;;;;;6213785;22;87001;-75
2023/06/04 08:41:29;;;;;;;14.02;8.70;;;40.10;36.60;;;;;;6212820;22;87904;-74
2023/06/04 08:44:01;;;;;;;10.23;7.95;;;41.10;36.10;;;;;;6176650;22;87607;-75
2023/06/04 08:46:28;;;;;;;10.50;8.20;;;41.90;35.20;;;;;;6171640;22;88323;-75
2023/06/04 08:48:57;;;;;;;11.00;7.10;;;42.10;34.00;;;;;;6211727;22;87448;-74
2023/06/04 08:51:22;;;;;;;9.15;6.50;;;41.60;34.40;;;;;;6207642;22;87779;-74
2023/06/04 08:53:53;;;;;;;8.73;7.00;;;40.50;34.70;;;;;;6197283;22;87589;-74
2023/06/04 08:56:22;;;;;;;9.57;7.57;;;40.50;35.70;;;;;;6196277;22;87426;-73
2023/06/04 08:58:48;;;;;;;10.60;7.63;;;40.60;35.10;;;;;;6196224;22;88010;-77
2023/06/04 09:01:14;;;;;;;12.20;7.97;;;40.40;35.20;;;;;;6202333;22;88175;-75
2023/06/04 09:03:41;;;;;;;9.13;7.95;;;41.00;35.40;;;;;;6200204;22;88291;-75
2023/06/04 09:06:08;;;;;;;9.10;4.78;;;41.50;34.00;;;;;;6201339;22;87164;-73
2023/06/04 09:08:37;;;;;;;8.48;6.88;;;41.40;34.10;;;;;;6200656;22;87684;-74
2023/06/04 09:11:07;;;;;;;7.38;6.22;;;41.00;35.00;;;;;;6209854;22;89735;-74
2023/06/04 09:13:34;;;;;;;9.27;6.78;;;40.40;34.00;;;;;;6203372;22;88730;-73
2023/06/04 09:16:04;;;;;;;7.93;7.05;;;39.90;34.30;;;;;;6202501;22;87600;-74
2023/06/04 09:18:30;;;;;;;10.05;8.15;;;39.50;34.30;;;;;;6175534;22;87560;-73
2023/06/04 09:21:07;;;;;;;7.90;5.47;;;39.50;35.40;;;;;;6199698;22;88892;-74
2023/06/04 09:23:44;;;;;;;9.75;7.15;;;39.70;35.40;;;;;;6215153;22;88322;-74
2023/06/04 09:26:10;;;;;;;7.75;6.78;;;39.10;34.60;;;;;;6218205;22;87104;-74
2023/06/04 09:28:46;;;;;;;9.20;6.55;;;38.00;35.40;;;;;;6215506;22;86802;-76
2023/06/04 09:31:16;;;;;;;8.43;6.68;;;38.20;37.10;;;;;;6218096;22;88166;-74
2023/06/04 09:33:51;;;;;;;11.73;6.63;;;38.30;36.10;;;;;;6202800;22;87202;-74
2023/06/04 09:36:17;;;;;;;10.98;8.25;;;39.00;35.60;;;;;;6202494;22;88864;-75
2023/06/04 09:38:43;;;;;;;8.50;7.22;;;39.50;35.40;;;;;;6203484;22;87668;-74
2023/06/04 09:41:17;;;;;;;11.45;7.28;;;39.90;35.00;;;;;;6201074;22;88120;-73
2023/06/04 09:43:43;;;;;;;8.95;7.22;;;40.40;35.50;;;;;;6207961;22;88069;-75
2023/06/04 09:46:13;;;;;;;10.48;7.43;;;40.70;34.60;;;;;;6216031;22;87785;-74
2023/06/04 09:48:40;;;;;;;9.43;6.88;;;41.30;35.20;;;;;;6209891;22;87258;-74
2023/06/04 09:51:15;;;;;;;10.25;6.85;;;41.60;34.00;;;;;;6198079;22;88166;-74
2023/06/04 09:53:41;;;;;;;11.32;8.05;;;41.10;34.50;;;;;;6207303;22;88443;-74
2023/06/04 09:56:08;;;;;;;11.35;7.70;;;40.40;35.50;;;;;;6202648;22;87529;-74
2023/06/04 09:58:35;;;;;;;8.77;6.60;;;39.90;35.10;;;;;;6209814;22;87455;-74
2023/06/04 10:01:03;;;;;;;10.88;6.60;;;39.10;36.60;;;;;;6202303;22;88830;-75
2023/06/04 10:03:33;;;;;;;9.35;6.07;;;39.00;36.60;;;;;;6212934;22;89670;-75
2023/06/04 10:06:05;;;;;;;10.75;6.50;;;38.10;36.20;;;;;;6207564;22;87686;-75
2023/06/04 10:08:33;;;;;;;8.82;5.18;;;37.10;38.30;;;;;;6185443;22;87421;-74
2023/06/04 10:11:01;;;;;;;7.93;4.28;;;35.70;37.20;;;;;;6214115;22;88438;-75
2023/06/04 10:13:29;;;;;;;;;;;34.50;39.70;;;;;;6217293;22;87375;-76
2023/06/04 10:15:59;;;;;;;8.45;3.90;;;33.80;41.00;;;;;;6190208;22;87407;-74
2023/06/04 10:18:26;;;;;;;7.22;4.82;;;33.30;41.70;;;;;;6188919;22;86884;-72
2023/06/04 10:20:56;;;;;;;7.40;5.70;;;33.00;42.90;;;;;;6216039;22;89427;-74
2023/06/04 10:23:23;;;;;;;6.43;4.90;;;32.90;42.80;;;;;;6215425;22;87924;-75
2023/06/04 10:25:51;;;;;;;7.82;4.68;;;32.70;42.10;;;;;;6188650;22;88283;-75
2023/06/04 10:28:19;;;;;;;7.82;4.43;;;32.50;43.10;;;;;;6190169;22;87505;-74
2023/06/04 10:30:44;;;;;;;6.65;4.25;;;32.30;44.90;;;;;;6216194;22;87951;-76
2023/06/04 10:33:11;;;;;;;5.88;4.38;;;31.90;45.80;;;;;;6188684;22;90881;-73
2023/06/04 10:35:37;;;;;;;5.40;3.90;;;31.50;44.20;;;;;;6217649;22;87651;-75
2023/06/04 10:38:11;;;;;;;7.68;4.53;;;31.60;43.80;;;;;;6189150;22;87596;-74
2023/06/04 10:40:37;;;;;;;6.90;4.38;;;31.30;43.50;;;;;;6216809;22;87510;-72
2023/06/04 10:43:08;;;;;;;5.88;4.07;;;31.10;43.90;;;;;;6214761;22;88354;-73
2023/06/04 10:45:34;;;;;;;8.30;4.28;;;31.00;45.20;;;;;;6216235;22;87683;-73
2023/06/04 10:48:05;;;;;;;8.05;3.03;;;31.10;44.50;;;;;;6218246;22;87456;-74
2023/06/04 10:50:47;;;;;;;8.15;4.85;;;31.10;44.80;;;;;;6214529;22;91396;-75
2023/06/04 10:53:12;;;;;;;5.88;4.25;;;31.30;42.90;;;;;;6214227;22;88850;-74
2023/06/04 10:55:49;;;;;;;6.45;3.90;;;31.10;44.10;;;;;;6215237;22;87292;-73
2023/06/04 10:58:16;;;;;;;7.68;3.40;;;31.50;43.50;;;;;;6187725;22;87582;-75
2023/06/04 11:00:46;;;;;;;8.98;3.85;;;31.70;42.80;;;;;;6213430;22;87542;-75
2023/06/04 11:03:13;;;;;;;6.88;3.58;;;31.80;42.30;;;;;;6215045;22;87786;-75
2023/06/04 11:05:42;;;;;;;5.65;3.78;;;32.00;42.60;;;;;;6187428;22;87432;-75
2023/06/04 11:08:10;;;;;;;6.18;3.40;;;31.70;41.80;;;;;;6186274;22;86748;-74
2023/06/04 11:10:45;;;;;;;7.75;3.80;;;31.50;42.50;;;;;;6215488;22;88619;-73
2023/06/04 11:13:12;;;;;;;8.45;3.97;;;31.30;41.50;;;;;;6214662;22;87858;-72
2023/06/04 11:15:46;;;;;;;8.18;4.05;;;31.20;43.10;;;;;;6214202;22;88449;-73
2023/06/04 11:18:19;;;;;;;7.20;3.20;;;31.30;42.90;;;;;;6214289;22;87360;-73
2023/06/04 11:20:49;;;;;;;6.50;4.13;;;31.40;43.00;;;;;;6212692;22;88729;-74
2023/06/04 11:23:16;;;;;;;11.02;3.65;;;31.40;43.30;;;;;;6212175;22;87820;-73
2023/06/04 11:25:44;;;;;;;7.10;3.97;;;31.40;41.90;;;;;;6215803;22;87497;-74
2023/06/04 11:28:17;;;;;;;7.93;3.83;;;31.60;42.50;;;;;;6216537;22;87019;-73
2023/06/04 11:30:43;;;;;;;7.18;3.45;;;31.80;42.80;;;;;;6216464;22;88068;-74
2023/06/04 11:33:09;;;;;;;7.38;4.10;;;31.90;43.10;;;;;;6218312;22;87599;-74
2023/06/04 11:35:42;;;;;;;5.95;3.47;;;32.00;42.80;;;;;;6218353;22;87239;-74
2023/06/04 11:38:09;;;;;;;3.88;2.50;;;31.90;41.00;;;;;;6215688;22;87267;-74
2023/06/04 11:40:35;;;;;;;5.03;3.65;;;32.00;40.70;;;;;;6215051;22;88470;-75
2023/06/04 11:43:02;;;;;;;7.53;3.65;;;32.00;38.60;;;;;;6216801;22;89417;-78
2023/06/04 11:45:29;;;;;;;5.90;3.78;;;31.70;40.30;;;;;;6212987;22;87335;-73
2023/06/04 11:47:56;;;;;;;4.50;3.15;;;31.70;39.70;;;;;;6215470;22;87260;-75
2023/06/04 11:50:23;;;;;;;6.53;3.50;;;31.60;41.00;;;;;;6214059;22;88017;-73
2023/06/04 11:52:49;;;;;;;7.57;3.38;;;31.30;40.60;;;;;;6215735;22;87227;-75
2023/06/04 11:55:20;;;;;;;5.90;3.33;;;31.20;41.60;;;;;;6214292;22;87350;-75
2023/06/04 11:57:47;;;;;;;5.38;3.47;;;31.10;41.70;;;;;;6217431;22;86888;-73
2023/06/04 12:00:15;;;;;;;6.07;3.90;;;30.90;41.10;;;;;;6215536;22;87734;-76
2023/06/04 12:02:54;;;;;;;5.30;3.35;;;30.70;41.10;;;;;;6216151;22;87747;-75
2023/06/04 12:05:25;;;;;;;5.13;2.60;;;30.50;40.60;;;;;;6216078;22;88127;-74
2023/06/04 12:07:51;;;;;;;5.07;3.53;;;30.50;40.10;;;;;;6216360;22;87469;-75
2023/06/04 12:10:20;;;;;;;5.68;2.22;;;30.40;41.10;;;;;;6215458;22;87603;-74
2023/06/04 12:12:46;;;;;;;7.53;3.47;;;30.30;40.60;;;;;;6216776;22;87227;-75
2023/06/04 12:15:19;;;;;;;6.45;2.67;;;30.50;42.80;;;;;;6216605;22;87679;-72
2023/06/04 12:17:51;;;;;;;7.55;3.63;;;30.60;42.50;;;;;;6215254;22;87503;-75
2023/06/04 12:20:17;;;;;;;5.40;3.20;;;30.80;42.00;;;;;;6216281;22;87654;-75
2023/06/04 12:22:47;;;;;;;6.45;3.75;;;30.80;41.90;;;;;;6216433;22;86814;-76
2023/06/04 12:25:23;;;;;;;5.40;3.70;;;31.00;41.80;;;;;;6215019;22;87246;-74
2023/06/04 12:27:48;;;;;;;5.68;3.45;;;31.10;40.40;;;;;;6217679;22;86948;-74
2023/06/04 12:30:15;;;;;;;5.57;3.33;;;31.40;42.60;;;;;;6216391;22;88343;-76
2023/06/04 12:32:42;;;;;;;9.80;3.67;;;31.50;41.00;;;;;;6216115;22;88081;-77
2023/06/04 12:35:08;;;;;;;5.40;3.38;;;31.50;39.80;;;;;;6217040;22;87276;-78
2023/06/04 12:37:33;;;;;;;6.50;3.50;;;31.40;38.90;;;;;;6216413;22;87618;-75
2023/06/04 12:39:59;;;;;;;5.47;3.83;;;31.10;39.40;;;;;;6215003;22;88113;-75
2023/06/04 12:42:25;;;;;;;4.80;2.70;;;31.10;40.00;;;;;;6216992;22;87731;-73
2023/06/04 12:44:50;;;;;;;5.43;4.10;;;31.20;40.00;;;;;;6217103;22;87240;-74
2023/06/04 12:47:16;;;;;;;6.60;3.55;;;31.20;39.80;;;;;;6219007;22;86532;-74
2023/06/04 12:49:42;;;;;;;5.07;2.80;;;30.90;39.40;;;;;;6217247;22;87657;-74
2023/06/04 12:52:08;;;;;;;4.97;2.50;;;30.70;38.60;;;;;;6217593;22;87452;-75
2023/06/04 12:54:34;;;;;;;6.60;3.30;;;30.80;40.50;;;;;;6216691;22;88164;-73
2023/06/04 12:57:00;;;;;;;8.63;3.53;;;30.60;40.30;;;;;;6216431;22;87386;-75
2023/06/04 12:59:27;;;;;;;4.90;3.33;;;30.40;39.00;;;;;;6217497;22;87038;-74
2023/06/04 13:01:55;;;;;;;4.82;2.92;;;30.30;39.90;;;;;;6216087;22;87657;-74
2023/06/04 13:04:23;;;;;;;6.93;3.40;;;30.20;41.00;;;;;;6216470;22;87447;-75
2023/06/04 13:06:49;;;;;;;5.15;3.28;;;30.30;42.10;;;;;;6215738;22;87389;-76
2023/06/04 13:09:15;;;;;;;5.28;2.90;;;30.50;40.10;;;;;;6215377;22;87574;-75
2023/06/04 13:11:44;;;;;;;6.30;3.67;;;30.30;41.00;;;;;;6218107;22;88194;-74
2023/06/04 13:14:10;;;;;;;3.83;2.80;;;30.20;40.10;;;;;;6217472;22;87341;-76
2023/06/04 13:16:38;;;;;;;5.03;3.42;;;30.40;41.10;;;;;;6216701;22;87328;-75
2023/06/04 13:19:03;;;;;;;5.50;3.17;;;30.70;40.80;;;;;;6216632;22;89020;-75
2023/06/04 13:21:29;;;;;;;7.28;3.65;;;30.80;41.60;;;;;;6215201;22;89408;-75
2023/06/04 13:23:56;;;;;;;7.00;3.33;;;30.90;40.20;;;;;;6217170;22;87411;-75
2023/06/04 13:26:22;;;;;;;6.45;3.08;;;30.90;38.70;;;;;;6218101;22;87271;-75
2023/06/04 13:28:48;;;;;;;5.22;3.60;;;30.90;39.90;;;;;;6215545;22;88622;-75
2023/06/04 13:31:14;;;;;;;8.32;3.55;;;31.10;38.60;;;;;;6216492;22;87472;-75
2023/06/04 13:33:39;;;;;;;8.35;3.20;;;31.10;38.20;;;;;;6216722;22;87025;-74
2023/06/04 13:36:06;;;;;;;6.43;2.75;;;31.10;38.50;;;;;;6217331;22;86528;-75
2023/06/04 13:38:32;;;;;;;9.98;3.33;;;31.10;38.30;;;;;;6215956;22;88437;-75
2023/06/04 13:40:58;;;;;;;6.95;3.42;;;31.10;39.00;;;;;;6216620;22;87367;-73
2023/06/04 13:43:23;;;;;;;4.63;3.53;;;31.00;39.50;;;;;;6215606;22;88288;-74
2023/06/04 13:45:49;;;;;;;4.90;3.08;;;30.80;38.30;;;;;;6218151;22;87541;-74
2023/06/04 13:48:15;;;;;;;6.50;3.47;;;30.70;39.90;;;;;;6218696;22;87416;-75
2023/06/04 13:50:41;;;;;;;6.57;4.32;;;30.80;38.60;;;;;;6218254;22;87861;-75
2023/06/04 13:53:12;;;;;;;7.13;3.35;;;30.60;39.90;;;;;;6219814;22;87568;-74
2023/06/04 13:55:38;;;;;;;7.72;3.85;;;30.60;40.60;;;;;;6219658;22;86886;-75
2023/06/04 13:58:04;;;;;;;6.22;2.22;;;30.60;37.40;;;;;;6218440;22;87662;-75
2023/06/04 14:00:30;;;;;;;5.82;3.40;;;30.50;39.50;;;;;;6219279;22;87803;-75
2023/06/04 14:02:56;;;;;;;5.45;3.25;;;30.40;40.40;;;;;;6219391;22;87144;-75
2023/06/04 14:05:23;;;;;;;8.68;3.55;;;30.20;38.80;;;;;;6219471;22;87346;-74
2023/06/04 14:07:49;;;;;;;5.97;3.08;;;29.80;38.20;;;;;;6217162;22;89049;-75
2023/06/04 14:10:14;;;;;;;7.32;3.60;;;29.80;38.50;;;;;;6215455;22;88119;-75
2023/06/04 14:12:40;;;;;;;7.38;2.95;;;29.70;39.20;;;;;;6217703;22;87345;-74
2023/06/04 14:15:11;;;;;;;4.38;2.85;;;29.90;40.20;;;;;;6218024;22;87303;-75
2023/06/04 14:17:37;;;;;;;8.98;3.17;;;30.00;40.20;;;;;;6217714;22;87831;-76
2023/06/04 14:20:08;;;;;;;6.05;2.25;;;29.90;41.40;;;;;;6215022;22;87358;-75
2023/06/04 14:22:37;;;;;;;6.53;2.35;;;29.50;42.30;;;;;;6217761;22;87457;-74
2023/06/04 14:25:07;;;;;;;7.97;1.98;;;29.20;43.70;;;;;;6218234;22;86570;-74
2023/06/04 14:27:33;;;;;;;5.45;2.13;;;28.80;44.20;;;;;;6217248;22;87911;-75
2023/06/04 14:29:59;;;;;;;5.43;2.65;;;28.60;46.20;;;;;;6216510;22;87751;-75
2023/06/04 14:32:25;;;;;;;8.63;2.75;;;28.50;45.80;;;;;;6217091;22;88691;-75
2023/06/04 14:34:51;;;;;;;6.43;2.75;;;28.50;45.40;;;;;;6218755;22;87184;-74
2023/06/04 14:37:17;;;;;;;4.00;2.30;;;28.40;43.70;;;;;;6215988;22;87614;-74
2023/06/04 14:39:42;;;;;;;4.82;2.63;;;28.50;44.60;;;;;;6216559;22;87722;-74
2023/06/04 14:42:08;;;;;;;7.97;3.03;;;28.70;46.00;;;;;;6216625;22;87540;-74
2023/06/04 14:44:34;;;;;;;5.55;2.90;;;28.90;44.20;;;;;;6188497;22;87600;-72
2023/06/04 14:46:59;;;;;;;6.60;3.17;;;28.60;44.00;;;;;;6217333;22;88037;-74
2023/06/04 14:49:25;;;;;;;5.78;3.00;;;28.30;42.90;;;;;;6219770;22;86997;-73
2023/06/04 14:51:51;;;;;;;6.28;2.42;;;28.40;43.60;;;;;;6218892;22;87711;-74
2023/06/04 14:54:16;;;;;;;5.95;2.67;;;28.70;43.80;;;;;;6218553;22;87397;-74
2023/06/04 14:56:42;;;;;;;5.50;1.60;;;28.70;44.00;;;;;;6217811;22;89518;-73
2023/06/04 14:59:11;;;;;;;6.18;2.00;;;28.40;46.00;;;;;;6218281;22;88653;-74
2023/06/04 15:01:38;;;;;;;7.60;2.38;;;28.50;45.20;;;;;;6216425;22;87476;-73
2023/06/04 15:04:04;;;;;;;5.70;2.38;;;28.70;45.80;;;;;;6217171;22;87418;-72
2023/06/04 15:06:30;;;;;;;4.75;2.17;;;28.90;47.20;;;;;;6216989;22;88042;-74
2023/06/04 15:08:56;;;;;;;4.63;1.85;;;29.10;45.20;;;;;;6216092;22;87323;-74
2023/06/04 15:11:21;;;;;;;5.15;2.00;;;29.20;45.50;;;;;;6215394;22;87300;-75
2023/06/04 15:13:47;;;;;;;3.92;1.83;;;29.20;45.20;;;;;;6214923;22;86532;-74
2023/06/04 15:16:13;;;;;;;3.28;2.30;;;29.10;45.20;;;;;;6217943;22;87965;-74
2023/06/04 15:18:38;;;;;;;3.50;2.42;;;29.10;45.40;;;;;;6214526;22;87438;-74
2023/06/04 15:21:04;;;;;;;10.68;1.67;;;29.20;45.70;;;;;;6216299;22;88399;-74
2023/06/04 15:23:30;;;;;;;4.05;1.70;;;29.20;45.20;;;;;;6219349;22;87250;-74
2023/06/04 15:25:55;;;;;;;4.13;2.28;;;29.10;43.80;;;;;;6218347;22;88291;-75
2023/06/04 15:28:21;;;;;;;3.42;2.03;;;29.20;44.50;;;;;;6218573;22;87406;-75
2023/06/04 15:30:47;;;;;;;4.93;1.52;;;29.20;44.30;;;;;;6219182;22;87647;-76
2023/06/04 15:33:13;;;;;;;4.70;1.60;;;29.20;45.10;;;;;;6218620;22;87436;-75
2023/06/04 15:35:38;;;;;;;2.42;1.67;;;29.20;44.80;;;;;;6218343;22;88056;-74
2023/06/04 15:38:04;;;;;;;3.92;1.55;;;29.00;44.20;;;;;;6217536;22;87050;-78
2023/06/04 15:40:30;;;;;;;2.33;1.08;;;28.80;44.10;;;;;;6217736;22;87497;-72
2023/06/04 15:42:55;;;;;;;5.80;1.70;;;28.70;44.60;;;;;;6217201;22;87265;-72
2023/06/04 15:45:24;;;;;;;2.42;1.02;;;28.60;44.30;;;;;;6217516;22;88959;-71
2023/06/04 15:47:50;;;;;;;5.20;1.50;;;28.60;44.60;;;;;;6213744;22;88732;-71
2023/06/04 15:50:16;;;;;;;4.53;2.28;;;28.70;45.80;;;;;;6216259;22;87578;-71
2023/06/04 15:52:41;;;;;;;2.30;1.48;;;28.70;44.90;;;;;;6216053;22;87086;-72
2023/06/04 15:55:07;;;;;;;4.60;1.27;;;28.60;44.80;;;;;;6216052;22;87738;-72
2023/06/04 15:57:33;;;;;;;3.55;2.10;;;28.30;45.70;;;;;;6217385;22;87851;-72
2023/06/04 15:59:58;;;;;;;5.03;1.75;;;28.20;45.20;;;;;;6216139;22;87558;-73